sensor_id;sensor_type;location;lat;lon;timestamp;pressure;altitude;pressure_sealevel;temperature;humidity
51287;BME280;37364;46.974;18.916;2024-03-23T00:55:03;152511.72;;;8.59;100.00
51287;BME280;37364;46.974;18.916;2024-03-23T00:57:29;152538.84;;;8.69;100.00
51287;BME280;37364;46.974;18.916;2024-03-23T00:59:55;152514.28;;;8.60;100.00
51287;BME280;37364;46.974;18.916;2024-03-23T01:02:22;152528.50;;;8.65;100.00
51287;BME280;37364;46.974;18.916;2024-03-23T01:04:48;152528.50;;;8.65;100.00
51287;BME280;37364;46.974;18.916;2024-03-23T01:07:14;152514.28;;;8.60;100.00
51287;BME280;37364;46.974;18.916;2024-03-23T01:09:40;152492.34;;;8.51;100.00
51287;BME280;37364;46.974;18.916;2024-03-23T01:12:09;152483.28;;;8.47;100.00
51287;BME280;37364;46.974;18.916;2024-03-23T01:14:35;152494.91;;;8.52;100.00
51287;BME280;37364;46.974;18.916;2024-03-23T01:17:02;152480.66;;;8.46;100.00
51287;BME280;37364;46.974;18.916;2024-03-23T01:19:28;152469.06;;;8.42;100.00
51287;BME280;37364;46.974;18.916;2024-03-23T01:21:54;152449.59;;;8.34;100.00
51287;BME280;37364;46.974;18.916;2024-03-23T01:24:20;152436.66;;;8.29;100.00
51287;BME280;37364;46.974;18.916;2024-03-23T01:26:46;152421.16;;;8.23;100.00
51287;BME280;37364;46.974;18.916;2024-03-23T01:29:15;152430.22;;;8.26;100.00
51287;BME280;37364;46.974;18.916;2024-03-23T01:31:41;152435.38;;;8.28;100.00
51287;BME280;37364;46.974;18.916;2024-03-23T01:34:07;152434.09;;;8.28;100.00
51287;BME280;37364;46.974;18.916;2024-03-23T01:36:33;152419.88;;;8.22;100.00
51287;BME280;37364;46.974;18.916;2024-03-23T01:38:59;152426.31;;;8.25;100.00
51287;BME280;37364;46.974;18.916;2024-03-23T01:41:26;152427.66;;;8.25;100.00
51287;BME280;37364;46.974;18.916;2024-03-23T01:43:53;152423.75;;;8.24;100.00
51287;BME280;37364;46.974;18.916;2024-03-23T01:46:23;152432.81;;;8.27;100.00
51287;BME280;37364;46.974;18.916;2024-03-23T01:48:49;152427.66;;;8.25;100.00
51287;BME280;37364;46.974;18.916;2024-03-23T01:51:18;152435.38;;;8.28;100.00
51287;BME280;37364;46.974;18.916;2024-03-23T01:53:44;152428.94;;;8.26;100.00
51287;BME280;37364;46.974;18.916;2024-03-23T01:56:10;152417.31;;;8.21;100.00
51287;BME280;37364;46.974;18.916;2024-03-23T01:58:36;152428.94;;;8.26;100.00
51287;BME280;37364;46.974;18.916;2024-03-23T02:01:03;152425.03;;;8.24;100.00
51287;BME280;37364;46.974;18.916;2024-03-23T02:03:31;152422.47;;;8.23;100.00
51287;BME280;37364;46.974;18.916;2024-03-23T02:05:58;152456.06;;;8.37;100.00
51287;BME280;37364;46.974;18.916;2024-03-23T02:08:24;152425.03;;;8.24;100.00
51287;BME280;37364;46.974;18.916;2024-03-23T02:10:51;152434.09;;;8.28;100.00
51287;BME280;37364;46.974;18.916;2024-03-23T02:13:18;152443.16;;;8.31;100.00
51287;BME280;37364;46.974;18.916;2024-03-23T02:15:44;152453.50;;;8.36;100.00
51287;BME280;37364;46.974;18.916;2024-03-23T02:18:10;152452.22;;;8.35;100.00
51287;BME280;37364;46.974;18.916;2024-03-23T02:20:39;152443.16;;;8.31;100.00
51287;BME280;37364;46.974;18.916;2024-03-23T02:23:12;152452.22;;;8.35;100.00
51287;BME280;37364;46.974;18.916;2024-03-23T02:25:39;152457.38;;;8.37;100.00
51287;BME280;37364;46.974;18.916;2024-03-23T02:28:05;152445.72;;;8.32;100.00
51287;BME280;37364;46.974;18.916;2024-03-23T02:30:31;152436.66;;;8.29;100.00
51287;BME280;37364;46.974;18.916;2024-03-23T02:32:58;152444.44;;;8.32;100.00
51287;BME280;37364;46.974;18.916;2024-03-23T02:35:24;152474.22;;;8.44;100.00
51287;BME280;37364;46.974;18.916;2024-03-23T02:37:50;152450.88;;;8.35;100.00
51287;BME280;37364;46.974;18.916;2024-03-23T02:40:19;152450.88;;;8.35;100.00
51287;BME280;37364;46.974;18.916;2024-03-23T02:42:46;152423.75;;;8.24;100.00
51287;BME280;37364;46.974;18.916;2024-03-23T02:45:12;152426.31;;;8.25;100.00
51287;BME280;37364;46.974;18.916;2024-03-23T02:47:38;152431.50;;;8.27;100.00
51287;BME280;37364;46.974;18.916;2024-03-23T02:50:05;152426.31;;;8.25;100.00
51287;BME280;37364;46.974;18.916;2024-03-23T02:52:32;152417.31;;;8.21;100.00
51287;BME280;37364;46.974;18.916;2024-03-23T02:54:58;152413.44;;;8.20;100.00
51287;BME280;37364;46.974;18.916;2024-03-23T02:57:27;152414.72;;;8.20;100.00
51287;BME280;37364;46.974;18.916;2024-03-23T02:59:53;152403.09;;;8.16;100.00
51287;BME280;37364;46.974;18.916;2024-03-23T03:02:20;152419.88;;;8.22;100.00
51287;BME280;37364;46.974;18.916;2024-03-23T03:04:46;152414.72;;;8.20;100.00
51287;BME280;37364;46.974;18.916;2024-03-23T03:07:12;152417.31;;;8.21;100.00
51287;BME280;37364;46.974;18.916;2024-03-23T03:09:39;152405.66;;;8.17;100.00
51287;BME280;37364;46.974;18.916;2024-03-23T03:12:06;152408.25;;;8.18;100.00
51287;BME280;37364;46.974;18.916;2024-03-23T03:14:35;152430.22;;;8.26;100.00
51287;BME280;37364;46.974;18.916;2024-03-23T03:17:01;152418.59;;;8.22;100.00
51287;BME280;37364;46.974;18.916;2024-03-23T03:19:27;152409.53;;;8.18;100.00
51287;BME280;37364;46.974;18.916;2024-03-23T03:21:53;152414.72;;;8.20;100.00
51287;BME280;37364;46.974;18.916;2024-03-23T03:24:19;152406.94;;;8.17;100.00
51287;BME280;37364;46.974;18.916;2024-03-23T03:26:45;152406.94;;;8.17;100.00
51287;BME280;37364;46.974;18.916;2024-03-23T03:29:11;152394.03;;;8.12;100.00
51287;BME280;37364;46.974;18.916;2024-03-23T03:31:40;152404.38;;;8.16;100.00
51287;BME280;37364;46.974;18.916;2024-03-23T03:34:06;152400.47;;;8.15;100.00
51287;BME280;37364;46.974;18.916;2024-03-23T03:36:32;152412.09;;;8.19;100.00
51287;BME280;37364;46.974;18.916;2024-03-23T03:38:59;152412.09;;;8.19;100.00
51287;BME280;37364;46.974;18.916;2024-03-23T03:41:25;152409.53;;;8.18;100.00
51287;BME280;37364;46.974;18.916;2024-03-23T03:43:51;152409.53;;;8.18;100.00
51287;BME280;37364;46.974;18.916;2024-03-23T03:46:17;152406.94;;;8.17;100.00
51287;BME280;37364;46.974;18.916;2024-03-23T03:48:46;152388.88;;;8.10;100.00
51287;BME280;37364;46.974;18.916;2024-03-23T03:51:12;152372.03;;;8.03;100.00
51287;BME280;37364;46.974;18.916;2024-03-23T03:53:38;152365.59;;;8.01;100.00
51287;BME280;37364;46.974;18.916;2024-03-23T03:56:04;152374.66;;;8.04;100.00
51287;BME280;37364;46.974;18.916;2024-03-23T03:58:31;152381.09;;;8.07;100.00
51287;BME280;37364;46.974;18.916;2024-03-23T04:00:57;152365.59;;;8.01;100.00
51287;BME280;37364;46.974;18.916;2024-03-23T04:03:23;152359.16;;;7.98;100.00
51287;BME280;37364;46.974;18.916;2024-03-23T04:05:55;152352.66;;;7.96;100.00
51287;BME280;37364;46.974;18.916;2024-03-23T04:08:21;152356.53;;;7.97;100.00
51287;BME280;37364;46.974;18.916;2024-03-23T04:10:48;152369.47;;;8.02;100.00
51287;BME280;37364;46.974;18.916;2024-03-23T04:13:14;152353.97;;;7.96;100.00
51287;BME280;37364;46.974;18.916;2024-03-23T04:15:40;152350.09;;;7.95;100.00
51287;BME280;37364;46.974;18.916;2024-03-23T04:18:06;152343.66;;;7.92;100.00
51287;BME280;37364;46.974;18.916;2024-03-23T04:20:32;152359.16;;;7.98;100.00
51287;BME280;37364;46.974;18.916;2024-03-23T04:23:01;152335.88;;;7.89;100.00
51287;BME280;37364;46.974;18.916;2024-03-23T04:25:27;152359.16;;;7.98;100.00
51287;BME280;37364;46.974;18.916;2024-03-23T04:27:53;152341.03;;;7.91;100.00
51287;BME280;37364;46.974;18.916;2024-03-23T04:30:20;152333.31;;;7.88;100.00
51287;BME280;37364;46.974;18.916;2024-03-23T04:32:46;152365.59;;;8.01;100.00
51287;BME280;37364;46.974;18.916;2024-03-23T04:35:12;152348.81;;;7.94;100.00
51287;BME280;37364;46.974;18.916;2024-03-23T04:37:38;152364.31;;;8.00;100.00
51287;BME280;37364;46.974;18.916;2024-03-23T04:40:09;152346.22;;;7.93;100.00
51287;BME280;37364;46.974;18.916;2024-03-23T04:42:36;152353.97;;;7.96;100.00
51287;BME280;37364;46.974;18.916;2024-03-23T04:45:03;152370.75;;;8.03;100.00
51287;BME280;37364;46.974;18.916;2024-03-23T04:47:30;152382.38;;;8.07;100.00
51287;BME280;37364;46.974;18.916;2024-03-23T04:49:56;152404.38;;;8.16;100.00
51287;BME280;37364;46.974;18.916;2024-03-23T04:52:22;152425.03;;;8.24;100.00
51287;BME280;37364;46.974;18.916;2024-03-23T04:54:49;152427.66;;;8.25;100.00
51287;BME280;37364;46.974;18.916;2024-03-23T04:57:18;152439.28;;;8.30;100.00
51287;BME280;37364;46.974;18.916;2024-03-23T04:59:46;152459.94;;;8.38;100.00
51287;BME280;37364;46.974;18.916;2024-03-23T05:02:12;152465.13;;;8.40;100.00
51287;BME280;37364;46.974;18.916;2024-03-23T05:04:41;152482.00;;;8.47;100.00
51287;BME280;37364;46.974;18.916;2024-03-23T05:07:07;152480.66;;;8.46;100.00
51287;BME280;37364;46.974;18.916;2024-03-23T05:09:33;152500.06;;;8.54;100.00
51287;BME280;37364;46.974;18.916;2024-03-23T05:11:59;152518.19;;;8.61;100.00
51287;BME280;37364;46.974;18.916;2024-03-23T05:14:28;152529.78;;;8.66;100.00
51287;BME280;37364;46.974;18.916;2024-03-23T05:16:55;152563.41;;;8.79;100.00
51287;BME280;37364;46.974;18.916;2024-03-23T05:19:21;152568.59;;;8.81;100.00
51287;BME280;37364;46.974;18.916;2024-03-23T05:21:48;152590.59;;;8.90;100.00
51287;BME280;37364;46.974;18.916;2024-03-23T05:24:14;152611.28;;;8.98;100.00
51287;BME280;37364;46.974;18.916;2024-03-23T05:26:40;152634.53;;;9.07;100.00
51287;BME280;37364;46.974;18.916;2024-03-23T05:29:06;152633.25;;;9.07;100.00
51287;BME280;37364;46.974;18.916;2024-03-23T05:31:35;152668.16;;;9.21;100.00
51287;BME280;37364;46.974;18.916;2024-03-23T05:34:01;152691.47;;;9.30;100.00
51287;BME280;37364;46.974;18.916;2024-03-23T05:36:27;152712.16;;;9.38;100.00
51287;BME280;37364;46.974;18.916;2024-03-23T05:38:53;152719.94;;;9.41;100.00
51287;BME280;37364;46.974;18.916;2024-03-23T05:41:19;152739.34;;;9.49;100.00
51287;BME280;37364;46.974;18.916;2024-03-23T05:43:45;152750.97;;;9.54;100.00
51287;BME280;37364;46.974;18.916;2024-03-23T05:46:12;152776.84;;;9.64;100.00
51287;BME280;37364;46.974;18.916;2024-03-23T05:48:40;152792.34;;;9.70;100.00
51287;BME280;37364;46.974;18.916;2024-03-23T05:51:06;152791.06;;;9.69;100.00
51287;BME280;37364;46.974;18.916;2024-03-23T05:53:33;152813.09;;;9.78;100.00
51287;BME280;37364;46.974;18.916;2024-03-23T05:56:03;152831.19;;;9.85;100.00
51287;BME280;37364;46.974;18.916;2024-03-23T05:58:29;152850.59;;;9.93;100.00
51287;BME280;37364;46.974;18.916;2024-03-23T06:00:57;152873.91;;;10.02;100.00
51287;BME280;37364;46.974;18.916;2024-03-23T06:03:24;152892.03;;;10.09;100.00
51287;BME280;37364;46.974;18.916;2024-03-23T06:05:53;152914.03;;;10.18;100.00
51287;BME280;37364;46.974;18.916;2024-03-23T06:08:19;152945.13;;;10.31;100.00
51287;BME280;37364;46.974;18.916;2024-03-23T06:10:46;152958.09;;;10.36;100.00
51287;BME280;37364;46.974;18.916;2024-03-23T06:13:12;152981.41;;;10.45;100.00
51287;BME280;37364;46.974;18.916;2024-03-23T06:15:39;153009.84;;;10.56;100.00
51287;BME280;37364;46.974;18.916;2024-03-23T06:18:05;153037.06;;;10.67;100.00
51287;BME280;37364;46.974;18.916;2024-03-23T06:20:31;153061.66;;;10.77;100.00
51287;BME280;37364;46.974;18.916;2024-03-23T06:23:00;153101.81;;;10.93;100.00
51287;BME280;37364;46.974;18.916;2024-03-23T06:25:26;153128.97;;;11.03;100.00
51287;BME280;37364;46.974;18.916;2024-03-23T06:27:53;153167.84;;;11.19;100.00
51287;BME280;37364;46.974;18.916;2024-03-23T06:30:19;153209.31;;;11.35;100.00
51287;BME280;37364;46.974;18.916;2024-03-23T06:32:45;153263.75;;;11.57;100.00
51287;BME280;37364;46.974;18.916;2024-03-23T06:35:11;153322.00;;;11.80;100.00
51287;BME280;37364;46.974;18.916;2024-03-23T06:37:37;153341.44;;;11.87;100.00
51287;BME280;37364;46.974;18.916;2024-03-23T06:40:07;153333.69;;;11.84;100.00
51287;BME280;37364;46.974;18.916;2024-03-23T06:42:33;153371.31;;;11.99;100.00
51287;BME280;37364;46.974;18.916;2024-03-23T06:45:00;153406.28;;;12.13;100.00
51287;BME280;37364;46.974;18.916;2024-03-23T06:47:26;153429.63;;;12.22;100.00
51287;BME280;37364;46.974;18.916;2024-03-23T06:49:52;153432.25;;;12.23;100.00
51287;BME280;37364;46.974;18.916;2024-03-23T06:52:18;153437.44;;;12.25;100.00
51287;BME280;37364;46.974;18.916;2024-03-23T06:54:44;153434.81;;;12.24;100.00
51287;BME280;37364;46.974;18.916;2024-03-23T06:57:13;153434.81;;;12.24;100.00
51287;BME280;37364;46.974;18.916;2024-03-23T06:59:39;153447.81;;;12.30;100.00
51287;BME280;37364;46.974;18.916;2024-03-23T07:02:05;153464.63;;;12.36;100.00
51287;BME280;37364;46.974;18.916;2024-03-23T07:04:31;153480.19;;;12.42;100.00
51287;BME280;37364;46.974;18.916;2024-03-23T07:06:58;153495.78;;;12.49;100.00
51287;BME280;37364;46.974;18.916;2024-03-23T07:09:24;153502.25;;;12.51;100.00
51287;BME280;37364;46.974;18.916;2024-03-23T07:11:50;153507.44;;;12.53;100.00
51287;BME280;37364;46.974;18.916;2024-03-23T07:14:19;153519.09;;;12.58;100.00
51287;BME280;37364;46.974;18.916;2024-03-23T07:16:45;153535.97;;;12.64;100.00
51287;BME280;37364;46.974;18.916;2024-03-23T07:19:11;153609.88;;;12.94;100.00
51287;BME280;37364;46.974;18.916;2024-03-23T07:21:37;153618.94;;;12.97;100.00
51287;BME280;37364;46.974;18.916;2024-03-23T07:24:04;153704.63;;;13.31;100.00
51287;BME280;37364;46.974;18.916;2024-03-23T07:26:30;153779.84;;;13.61;100.00
51287;BME280;37364;46.974;18.916;2024-03-23T07:28:56;153821.34;;;13.77;100.00
51287;BME280;37364;46.974;18.916;2024-03-23T07:31:25;153844.72;;;13.87;100.00
51287;BME280;37364;46.974;18.916;2024-03-23T07:33:51;153925.19;;;14.18;100.00
51287;BME280;37364;46.974;18.916;2024-03-23T07:36:18;154026.50;;;14.58;100.00
51287;BME280;37364;46.974;18.916;2024-03-23T07:38:44;154065.41;;;14.74;100.00
51287;BME280;37364;46.974;18.916;2024-03-23T07:41:11;154164.13;;;15.13;100.00
51287;BME280;37364;46.974;18.916;2024-03-23T07:43:38;154232.97;;;15.40;100.00
51287;BME280;37364;46.974;18.916;2024-03-23T07:46:05;154334.38;;;15.80;100.00
51287;BME280;37364;46.974;18.916;2024-03-23T07:48:33;154366.84;;;15.93;100.00
51287;BME280;37364;46.974;18.916;2024-03-23T07:51:00;154473.44;;;16.35;100.00
51287;BME280;37364;46.974;18.916;2024-03-23T07:53:27;154552.72;;;16.66;100.00
51287;BME280;37364;46.974;18.916;2024-03-23T07:55:58;154615.16;;;16.91;100.00
51287;BME280;37364;46.974;18.916;2024-03-23T07:58:24;154496.78;;;16.44;100.00
51287;BME280;37364;46.974;18.916;2024-03-23T08:00:50;154544.91;;;16.63;100.00
51287;BME280;37364;46.974;18.916;2024-03-23T08:03:16;154591.75;;;16.82;100.00
51287;BME280;37364;46.974;18.916;2024-03-23T08:05:45;154607.38;;;16.88;100.00
51287;BME280;37364;46.974;18.916;2024-03-23T08:08:12;154623.00;;;16.94;100.00
51287;BME280;37364;46.974;18.916;2024-03-23T08:10:47;154577.44;;;16.76;100.00
51287;BME280;37364;46.974;18.916;2024-03-23T08:13:13;154543.63;;;16.63;100.00
51287;BME280;37364;46.974;18.916;2024-03-23T08:15:39;154585.22;;;16.79;100.00
51287;BME280;37364;46.974;18.916;2024-03-23T08:18:06;154574.81;;;16.75;100.00
51287;BME280;37364;46.974;18.916;2024-03-23T08:20:32;154555.31;;;16.67;100.00
51287;BME280;37364;46.974;18.916;2024-03-23T08:23:01;154647.69;;;17.04;100.00
51287;BME280;37364;46.974;18.916;2024-03-23T08:25:27;154693.19;;;17.22;98.32
51287;BME280;37364;46.974;18.916;2024-03-23T08:27:53;154743.91;;;17.42;99.92
51287;BME280;37364;46.974;18.916;2024-03-23T08:30:19;154764.72;;;17.50;98.34
51287;BME280;37364;46.974;18.916;2024-03-23T08:32:45;154858.44;;;17.87;99.23
51287;BME280;37364;46.974;18.916;2024-03-23T08:35:12;154866.28;;;17.90;95.60
51287;BME280;37364;46.974;18.916;2024-03-23T08:37:38;154896.19;;;18.02;95.69
51287;BME280;37364;46.974;18.916;2024-03-23T08:40:08;154924.78;;;18.13;93.71
51287;BME280;37364;46.974;18.916;2024-03-23T08:42:34;155006.81;;;18.45;92.98
51287;BME280;37364;46.974;18.916;2024-03-23T08:45:00;155038.03;;;18.57;93.27
51287;BME280;37364;46.974;18.916;2024-03-23T08:47:26;154933.91;;;18.16;91.23
51287;BME280;37364;46.974;18.916;2024-03-23T08:49:52;154812.88;;;17.69;92.96
51287;BME280;37364;46.974;18.916;2024-03-23T08:52:19;154750.41;;;17.44;91.83
51287;BME280;37364;46.974;18.916;2024-03-23T08:54:45;154723.13;;;17.33;91.94
51287;BME280;37364;46.974;18.916;2024-03-23T08:57:13;154710.09;;;17.28;93.45
51287;BME280;37364;46.974;18.916;2024-03-23T08:59:42;154710.09;;;17.28;93.51
51287;BME280;37364;46.974;18.916;2024-03-23T09:02:09;154773.84;;;17.53;94.75
51287;BME280;37364;46.974;18.916;2024-03-23T09:04:35;154884.44;;;17.97;91.91
51287;BME280;37364;46.974;18.916;2024-03-23T09:07:01;154965.16;;;18.29;90.89
51287;BME280;37364;46.974;18.916;2024-03-23T09:09:27;154935.25;;;18.17;91.75
51287;BME280;37364;46.974;18.916;2024-03-23T09:11:53;155051.06;;;18.63;92.42
51287;BME280;37364;46.974;18.916;2024-03-23T09:14:22;155173.47;;;19.11;88.77
51287;BME280;37364;46.974;18.916;2024-03-23T09:16:49;155275.06;;;19.51;88.38
51287;BME280;37364;46.974;18.916;2024-03-23T09:19:17;155265.94;;;19.47;83.75
51287;BME280;37364;46.974;18.916;2024-03-23T09:21:43;155254.22;;;19.43;84.83
51287;BME280;37364;46.974;18.916;2024-03-23T09:24:09;155355.88;;;19.83;84.00
51287;BME280;37364;46.974;18.916;2024-03-23T09:26:35;155359.78;;;19.84;80.87
51287;BME280;37364;46.974;18.916;2024-03-23T09:29:01;155393.66;;;19.98;80.09
51287;BME280;37364;46.974;18.916;2024-03-23T09:31:30;155419.69;;;20.08;78.80
51287;BME280;37364;46.974;18.916;2024-03-23T09:33:57;155295.91;;;19.59;80.27
51287;BME280;37364;46.974;18.916;2024-03-23T09:36:24;155247.69;;;19.40;80.22
51287;BME280;37364;46.974;18.916;2024-03-23T09:38:50;155267.22;;;19.48;80.93
51287;BME280;37364;46.974;18.916;2024-03-23T09:41:16;155221.66;;;19.30;79.73
51287;BME280;37364;46.974;18.916;2024-03-23T09:43:42;155146.13;;;19.00;80.08
51287;BME280;37364;46.974;18.916;2024-03-23T09:46:08;155173.47;;;19.11;81.31
51287;BME280;37364;46.974;18.916;2024-03-23T09:48:37;155156.56;;;19.04;81.15
51287;BME280;37364;46.974;18.916;2024-03-23T09:51:04;155207.31;;;19.24;80.63
51287;BME280;37364;46.974;18.916;2024-03-23T09:53:30;155226.88;;;19.32;80.74
51287;BME280;37364;46.974;18.916;2024-03-23T09:55:56;155204.75;;;19.23;81.45
51287;BME280;37364;46.974;18.916;2024-03-23T09:58:23;155275.06;;;19.51;80.56
51287;BME280;37364;46.974;18.916;2024-03-23T10:00:50;155371.47;;;19.89;78.49
51287;BME280;37364;46.974;18.916;2024-03-23T10:03:16;155288.06;;;19.56;78.68
51287;BME280;37364;46.974;18.916;2024-03-23T10:05:46;155291.97;;;19.58;77.56
51287;BME280;37364;46.974;18.916;2024-03-23T10:08:19;155372.78;;;19.89;76.79
51287;BME280;37364;46.974;18.916;2024-03-23T10:10:46;155392.31;;;19.97;75.28
51287;BME280;37364;46.974;18.916;2024-03-23T10:13:23;155319.34;;;19.68;75.49
51287;BME280;37364;46.974;18.916;2024-03-23T10:15:55;155325.84;;;19.71;76.31
51287;BME280;37364;46.974;18.916;2024-03-23T10:18:22;155314.16;;;19.66;75.14
51287;BME280;37364;46.974;18.916;2024-03-23T10:21:06;155318.00;;;19.68;75.49
51287;BME280;37364;46.974;18.916;2024-03-23T10:23:33;155233.34;;;19.34;77.38
51287;BME280;37364;46.974;18.916;2024-03-23T10:26:12;155332.41;;;19.73;75.94
51287;BME280;37364;46.974;18.916;2024-03-23T10:28:53;155288.06;;;19.56;77.15
51287;BME280;37364;46.974;18.916;2024-03-23T10:31:40;155327.19;;;19.71;73.71
51287;BME280;37364;46.974;18.916;2024-03-23T10:34:07;155318.00;;;19.68;74.37
51287;BME280;37364;46.974;18.916;2024-03-23T10:36:38;155324.56;;;19.70;74.97
51287;BME280;37364;46.974;18.916;2024-03-23T10:39:07;155364.97;;;19.86;74.97
51287;BME280;37364;46.974;18.916;2024-03-23T10:41:34;155381.91;;;19.93;74.16
51287;BME280;37364;46.974;18.916;2024-03-23T10:44:01;155374.13;;;19.90;74.53
51287;BME280;37364;46.974;18.916;2024-03-23T10:46:28;155348.03;;;19.80;75.70
51287;BME280;37364;46.974;18.916;2024-03-23T10:48:54;155391.03;;;19.97;74.01
51287;BME280;37364;46.974;18.916;2024-03-23T10:51:20;155432.69;;;20.13;75.70
51287;BME280;37364;46.974;18.916;2024-03-23T10:53:50;155454.88;;;20.22;74.75
51287;BME280;37364;46.974;18.916;2024-03-23T10:56:17;155548.72;;;20.59;77.35
51287;BME280;37364;46.974;18.916;2024-03-23T10:58:48;155684.31;;;21.12;74.33
51287;BME280;37364;46.974;18.916;2024-03-23T11:01:15;155831.72;;;21.70;74.82
51287;BME280;37364;46.974;18.916;2024-03-23T11:03:45;155809.53;;;21.61;72.05
51287;BME280;37364;46.974;18.916;2024-03-23T11:06:35;155757.34;;;21.41;71.61
51287;BME280;37364;46.974;18.916;2024-03-23T11:09:40;155749.50;;;21.38;71.54
51287;BME280;37364;46.974;18.916;2024-03-23T11:12:34;155568.31;;;20.66;70.05
51287;BME280;37364;46.974;18.916;2024-03-23T11:15:02;155667.38;;;21.05;69.40
51287;BME280;37364;46.974;18.916;2024-03-23T11:17:29;155722.13;;;21.27;71.06
51287;BME280;37364;46.974;18.916;2024-03-23T11:19:57;155752.13;;;21.39;70.46
51287;BME280;37364;46.974;18.916;2024-03-23T11:22:42;155690.81;;;21.14;71.38
51287;BME280;37364;46.974;18.916;2024-03-23T11:25:18;155638.69;;;20.94;70.90
51287;BME280;37364;46.974;18.916;2024-03-23T11:27:46;155639.97;;;20.94;75.50
51287;BME280;37364;46.974;18.916;2024-03-23T11:30:13;155650.41;;;20.99;73.08
51287;BME280;37364;46.974;18.916;2024-03-23T11:32:42;155607.41;;;20.82;73.38
51287;BME280;37364;46.974;18.916;2024-03-23T11:35:08;155656.97;;;21.01;70.90
51287;BME280;37364;46.974;18.916;2024-03-23T11:37:36;155720.81;;;21.26;68.08
51287;BME280;37364;46.974;18.916;2024-03-23T11:40:21;155729.94;;;21.30;71.79
51287;BME280;37364;46.974;18.916;2024-03-23T11:42:55;155689.53;;;21.14;72.74
51287;BME280;37364;46.974;18.916;2024-03-23T11:45:21;155585.25;;;20.73;64.20
51287;BME280;37364;46.974;18.916;2024-03-23T11:47:47;155620.44;;;20.87;68.49
51287;BME280;37364;46.974;18.916;2024-03-23T11:50:19;155632.19;;;20.91;67.29
51287;BME280;37364;46.974;18.916;2024-03-23T11:52:45;155655.63;;;21.01;68.99
51287;BME280;37364;46.974;18.916;2024-03-23T11:55:11;155557.91;;;20.62;62.36
51287;BME280;37364;46.974;18.916;2024-03-23T11:57:40;155587.88;;;20.74;62.70
51287;BME280;37364;46.974;18.916;2024-03-23T12:00:21;155587.88;;;20.74;61.96
51287;BME280;37364;46.974;18.916;2024-03-23T12:02:47;155590.44;;;20.75;62.97
51287;BME280;37364;46.974;18.916;2024-03-23T12:05:16;155570.91;;;20.67;58.17
51287;BME280;37364;46.974;18.916;2024-03-23T12:07:42;155765.19;;;21.44;59.33
51287;BME280;37364;46.974;18.916;2024-03-23T12:10:09;155836.94;;;21.72;61.24
51287;BME280;37364;46.974;18.916;2024-03-23T12:12:35;155754.72;;;21.40;59.07
51287;BME280;37364;46.974;18.916;2024-03-23T12:15:05;155679.09;;;21.10;58.22
51287;BME280;37364;46.974;18.916;2024-03-23T12:17:32;155686.94;;;21.13;55.92
51287;BME280;37364;46.974;18.916;2024-03-23T12:19:58;155637.41;;;20.93;56.43
51287;BME280;37364;46.974;18.916;2024-03-23T12:22:24;155689.53;;;21.14;56.90
51287;BME280;37364;46.974;18.916;2024-03-23T12:24:51;155636.06;;;20.93;56.57
51287;BME280;37364;46.974;18.916;2024-03-23T12:27:17;155666.03;;;21.05;58.09
51287;BME280;37364;46.974;18.916;2024-03-23T12:29:43;155613.94;;;20.84;59.23
51287;BME280;37364;46.974;18.916;2024-03-23T12:32:13;155564.41;;;20.65;58.19
51287;BME280;37364;46.974;18.916;2024-03-23T12:34:40;155578.72;;;20.70;58.40
51287;BME280;37364;46.974;18.916;2024-03-23T12:37:07;155561.75;;;20.64;58.68
51287;BME280;37364;46.974;18.916;2024-03-23T12:39:33;155559.19;;;20.63;57.88
51287;BME280;37364;46.974;18.916;2024-03-23T12:42:00;155553.97;;;20.61;57.55
51287;BME280;37364;46.974;18.916;2024-03-23T12:44:26;155589.16;;;20.74;57.45
51287;BME280;37364;46.974;18.916;2024-03-23T12:46:52;155610.00;;;20.83;57.02
51287;BME280;37364;46.974;18.916;2024-03-23T12:49:21;155602.22;;;20.80;56.98
51287;BME280;37364;46.974;18.916;2024-03-23T12:51:53;155632.19;;;20.91;57.67
51287;BME280;37364;46.974;18.916;2024-03-23T12:54:20;155538.28;;;20.54;57.74
51287;BME280;37364;46.974;18.916;2024-03-23T12:56:46;155535.66;;;20.53;57.79
51287;BME280;37364;46.974;18.916;2024-03-23T12:59:12;155480.94;;;20.32;57.17
51287;BME280;37364;46.974;18.916;2024-03-23T13:01:39;155465.31;;;20.26;56.40
51287;BME280;37364;46.974;18.916;2024-03-23T13:04:05;155440.53;;;20.16;56.25
51287;BME280;37364;46.974;18.916;2024-03-23T13:06:34;155431.41;;;20.12;56.60
51287;BME280;37364;46.974;18.916;2024-03-23T13:09:00;155418.41;;;20.07;56.90
51287;BME280;37364;46.974;18.916;2024-03-23T13:11:27;155439.25;;;20.15;58.63
51287;BME280;37364;46.974;18.916;2024-03-23T13:13:53;155415.78;;;20.06;60.22
51287;BME280;37364;46.974;18.916;2024-03-23T13:16:19;155405.38;;;20.02;59.73
51287;BME280;37364;46.974;18.916;2024-03-23T13:18:45;155418.41;;;20.07;59.88
51287;BME280;37364;46.974;18.916;2024-03-23T13:21:11;155414.50;;;20.06;60.35
51287;BME280;37364;46.974;18.916;2024-03-23T13:23:40;155410.56;;;20.04;60.97
51287;BME280;37364;46.974;18.916;2024-03-23T13:26:06;155331.09;;;19.73;60.63
51287;BME280;37364;46.974;18.916;2024-03-23T13:28:33;155273.78;;;19.50;62.33
51287;BME280;37364;46.974;18.916;2024-03-23T13:30:59;155275.06;;;19.51;61.67
51287;BME280;37364;46.974;18.916;2024-03-23T13:33:26;155293.25;;;19.58;63.23